sensor_id;sensor_type;location;lat;lon;timestamp;P1;durP1;ratioP1;P2;durP2;ratioP2
74963;SDS011;63521;51.900;4.748;2023-04-24T00:01:48;0.30;;;0.30;;
74963;SDS011;63521;51.900;4.748;2023-04-24T00:04:13;0.17;;;0.17;;
74963;SDS011;63521;51.900;4.748;2023-04-24T00:06:41;0.85;;;0.22;;
74963;SDS011;63521;51.900;4.748;2023-04-24T00:09:11;0.28;;;0.28;;
74963;SDS011;63521;51.900;4.748;2023-04-24T00:11:37;0.25;;;0.20;;
74963;SDS011;63521;51.900;4.748;2023-04-24T00:14:03;0.25;;;0.25;;
74963;SDS011;63521;51.900;4.748;2023-04-24T00:16:28;0.63;;;0.30;;
74963;SDS011;63521;51.900;4.748;2023-04-24T00:18:54;0.70;;;0.20;;
74963;SDS011;63521;51.900;4.748;2023-04-24T00:21:20;0.30;;;0.30;;
74963;SDS011;63521;51.900;4.748;2023-04-24T00:23:47;0.80;;;0.38;;
74963;SDS011;63521;51.900;4.748;2023-04-24T00:26:13;0.40;;;0.40;;
74963;SDS011;63521;51.900;4.748;2023-04-24T00:28:41;0.70;;;0.40;;
74963;SDS011;63521;51.900;4.748;2023-04-24T00:31:07;0.30;;;0.30;;
74963;SDS011;63521;51.900;4.748;2023-04-24T00:33:35;0.30;;;0.30;;
74963;SDS011;63521;51.900;4.748;2023-04-24T00:36:01;0.20;;;0.20;;
74963;SDS011;63521;51.900;4.748;2023-04-24T00:38:29;0.52;;;0.43;;
74963;SDS011;63521;51.900;4.748;2023-04-24T00:40:54;0.35;;;0.35;;
74963;SDS011;63521;51.900;4.748;2023-04-24T00:43:20;0.30;;;0.30;;
74963;SDS011;63521;51.900;4.748;2023-04-24T00:45:46;0.30;;;0.30;;
74963;SDS011;63521;51.900;4.748;2023-04-24T00:48:11;0.30;;;0.30;;
74963;SDS011;63521;51.900;4.748;2023-04-24T00:50:37;0.77;;;0.30;;
74963;SDS011;63521;51.900;4.748;2023-04-24T00:53:05;0.28;;;0.20;;
74963;SDS011;63521;51.900;4.748;2023-04-24T00:55:32;0.30;;;0.30;;
74963;SDS011;63521;51.900;4.748;2023-04-24T00:58:01;0.13;;;0.10;;
74963;SDS011;63521;51.900;4.748;2023-04-24T01:00:28;0.57;;;0.35;;
74963;SDS011;63521;51.900;4.748;2023-04-24T01:02:54;0.52;;;0.38;;
74963;SDS011;63521;51.900;4.748;2023-04-24T01:05:21;0.40;;;0.38;;
74963;SDS011;63521;51.900;4.748;2023-04-24T01:07:46;0.50;;;0.50;;
74963;SDS011;63521;51.900;4.748;2023-04-24T01:10:14;0.25;;;0.25;;
74963;SDS011;63521;51.900;4.748;2023-04-24T01:12:40;0.47;;;0.38;;
74963;SDS011;63521;51.900;4.748;2023-04-24T01:15:06;0.40;;;0.40;;
74963;SDS011;63521;51.900;4.748;2023-04-24T01:17:34;0.98;;;0.32;;
74963;SDS011;63521;51.900;4.748;2023-04-24T01:20:01;0.30;;;0.30;;
74963;SDS011;63521;51.900;4.748;2023-04-24T01:22:29;0.28;;;0.20;;
74963;SDS011;63521;51.900;4.748;2023-04-24T01:24:55;0.60;;;0.32;;
74963;SDS011;63521;51.900;4.748;2023-04-24T01:27:20;0.40;;;0.40;;
74963;SDS011;63521;51.900;4.748;2023-04-24T01:29:46;0.43;;;0.43;;
74963;SDS011;63521;51.900;4.748;2023-04-24T01:32:15;0.57;;;0.30;;
74963;SDS011;63521;51.900;4.748;2023-04-24T01:34:40;0.35;;;0.35;;
74963;SDS011;63521;51.900;4.748;2023-04-24T01:37:06;0.63;;;0.43;;
74963;SDS011;63521;51.900;4.748;2023-04-24T01:39:32;0.20;;;0.20;;
74963;SDS011;63521;51.900;4.748;2023-04-24T01:41:58;0.55;;;0.47;;
74963;SDS011;63521;51.900;4.748;2023-04-24T01:44:25;0.32;;;0.32;;
74963;SDS011;63521;51.900;4.748;2023-04-24T01:46:52;0.60;;;0.50;;
74963;SDS011;63521;51.900;4.748;2023-04-24T01:49:19;0.40;;;0.40;;
74963;SDS011;63521;51.900;4.748;2023-04-24T01:51:45;0.75;;;0.40;;
74963;SDS011;63521;51.900;4.748;2023-04-24T01:54:12;0.20;;;0.20;;
74963;SDS011;63521;51.900;4.748;2023-04-24T01:56:40;0.40;;;0.40;;
74963;SDS011;63521;51.900;4.748;2023-04-24T01:59:09;0.30;;;0.30;;
74963;SDS011;63521;51.900;4.748;2023-04-24T02:01:38;0.40;;;0.40;;
74963;SDS011;63521;51.900;4.748;2023-04-24T02:04:04;0.55;;;0.30;;
74963;SDS011;63521;51.900;4.748;2023-04-24T02:06:30;0.65;;;0.47;;
74963;SDS011;63521;51.900;4.748;2023-04-24T02:08:57;0.50;;;0.50;;
74963;SDS011;63521;51.900;4.748;2023-04-24T02:11:23;0.93;;;0.50;;
74963;SDS011;63521;51.900;4.748;2023-04-24T02:13:48;0.60;;;0.50;;
74963;SDS011;63521;51.900;4.748;2023-04-24T02:16:16;0.55;;;0.52;;
74963;SDS011;63521;51.900;4.748;2023-04-24T02:18:42;0.47;;;0.43;;
74963;SDS011;63521;51.900;4.748;2023-04-24T02:21:07;0.38;;;0.38;;
74963;SDS011;63521;51.900;4.748;2023-04-24T02:23:33;0.50;;;0.50;;
74963;SDS011;63521;51.900;4.748;2023-04-24T02:25:58;0.55;;;0.55;;
74963;SDS011;63521;51.900;4.748;2023-04-24T02:28:24;0.75;;;0.60;;
74963;SDS011;63521;51.900;4.748;2023-04-24T02:30:49;0.70;;;0.70;;
74963;SDS011;63521;51.900;4.748;2023-04-24T02:33:16;0.60;;;0.60;;
74963;SDS011;63521;51.900;4.748;2023-04-24T02:35:41;0.88;;;0.73;;
74963;SDS011;63521;51.900;4.748;2023-04-24T02:38:07;0.95;;;0.55;;
74963;SDS011;63521;51.900;4.748;2023-04-24T02:40:32;1.15;;;0.80;;
74963;SDS011;63521;51.900;4.748;2023-04-24T02:42:57;0.80;;;0.80;;
74963;SDS011;63521;51.900;4.748;2023-04-24T02:45:23;2.15;;;1.10;;
74963;SDS011;63521;51.900;4.748;2023-04-24T02:47:48;0.98;;;0.90;;
74963;SDS011;63521;51.900;4.748;2023-04-24T02:50:14;0.93;;;0.88;;
74963;SDS011;63521;51.900;4.748;2023-04-24T02:52:39;1.55;;;0.70;;
74963;SDS011;63521;51.900;4.748;2023-04-24T02:55:05;1.33;;;0.60;;
74963;SDS011;63521;51.900;4.748;2023-04-24T02:57:31;1.13;;;0.80;;
74963;SDS011;63521;51.900;4.748;2023-04-24T02:59:56;1.00;;;0.82;;
74963;SDS011;63521;51.900;4.748;2023-04-24T03:02:22;1.25;;;0.60;;
74963;SDS011;63521;51.900;4.748;2023-04-24T03:04:47;0.60;;;0.60;;
74963;SDS011;63521;51.900;4.748;2023-04-24T03:07:13;0.90;;;0.77;;
74963;SDS011;63521;51.900;4.748;2023-04-24T03:09:40;1.80;;;0.80;;
74963;SDS011;63521;51.900;4.748;2023-04-24T03:12:06;0.60;;;0.60;;
74963;SDS011;63521;51.900;4.748;2023-04-24T03:14:31;1.50;;;0.93;;
74963;SDS011;63521;51.900;4.748;2023-04-24T03:16:58;0.65;;;0.65;;
74963;SDS011;63521;51.900;4.748;2023-04-24T03:19:24;1.05;;;0.80;;
74963;SDS011;63521;51.900;4.748;2023-04-24T03:21:49;0.45;;;0.45;;
74963;SDS011;63521;51.900;4.748;2023-04-24T03:24:15;2.03;;;0.80;;
74963;SDS011;63521;51.900;4.748;2023-04-24T03:26:40;1.20;;;0.70;;
74963;SDS011;63521;51.900;4.748;2023-04-24T03:29:07;0.40;;;0.40;;
74963;SDS011;63521;51.900;4.748;2023-04-24T03:31:33;0.60;;;0.60;;
74963;SDS011;63521;51.900;4.748;2023-04-24T03:33:58;1.70;;;0.80;;
74963;SDS011;63521;51.900;4.748;2023-04-24T03:36:24;1.10;;;0.75;;
74963;SDS011;63521;51.900;4.748;2023-04-24T03:38:49;0.70;;;0.60;;
74963;SDS011;63521;51.900;4.748;2023-04-24T03:41:14;0.57;;;0.50;;
74963;SDS011;63521;51.900;4.748;2023-04-24T03:43:41;0.68;;;0.52;;
74963;SDS011;63521;51.900;4.748;2023-04-24T03:46:07;0.60;;;0.60;;
74963;SDS011;63521;51.900;4.748;2023-04-24T03:48:35;0.50;;;0.50;;
74963;SDS011;63521;51.900;4.748;2023-04-24T03:51:00;0.63;;;0.60;;
74963;SDS011;63521;51.900;4.748;2023-04-24T03:53:26;0.57;;;0.57;;
74963;SDS011;63521;51.900;4.748;2023-04-24T03:55:52;0.65;;;0.65;;
74963;SDS011;63521;51.900;4.748;2023-04-24T03:58:18;0.73;;;0.60;;
74963;SDS011;63521;51.900;4.748;2023-04-24T04:00:45;0.40;;;0.40;;
74963;SDS011;63521;51.900;4.748;2023-04-24T04:03:12;1.80;;;0.45;;
74963;SDS011;63521;51.900;4.748;2023-04-24T04:05:39;0.50;;;0.50;;
74963;SDS011;63521;51.900;4.748;2023-04-24T04:08:06;0.57;;;0.50;;
74963;SDS011;63521;51.900;4.748;2023-04-24T04:10:31;0.90;;;0.43;;
74963;SDS011;63521;51.900;4.748;2023-04-24T04:12:57;0.85;;;0.60;;
74963;SDS011;63521;51.900;4.748;2023-04-24T04:15:23;0.88;;;0.63;;
74963;SDS011;63521;51.900;4.748;2023-04-24T04:17:49;0.40;;;0.40;;
74963;SDS011;63521;51.900;4.748;2023-04-24T04:20:14;0.40;;;0.40;;
74963;SDS011;63521;51.900;4.748;2023-04-24T04:22:40;0.43;;;0.43;;
74963;SDS011;63521;51.900;4.748;2023-04-24T04:25:05;0.55;;;0.55;;
74963;SDS011;63521;51.900;4.748;2023-04-24T04:27:31;0.45;;;0.40;;
74963;SDS011;63521;51.900;4.748;2023-04-24T04:29:58;1.00;;;0.60;;
74963;SDS011;63521;51.900;4.748;2023-04-24T04:32:26;1.10;;;0.40;;
74963;SDS011;63521;51.900;4.748;2023-04-24T04:34:52;0.40;;;0.32;;
74963;SDS011;63521;51.900;4.748;2023-04-24T04:37:18;0.40;;;0.30;;
74963;SDS011;63521;51.900;4.748;2023-04-24T04:39:44;0.47;;;0.43;;
74963;SDS011;63521;51.900;4.748;2023-04-24T04:42:09;0.38;;;0.38;;
74963;SDS011;63521;51.900;4.748;2023-04-24T04:44:35;0.38;;;0.30;;
74963;SDS011;63521;51.900;4.748;2023-04-24T04:47:01;0.28;;;0.28;;
74963;SDS011;63521;51.900;4.748;2023-04-24T04:49:30;0.68;;;0.47;;
74963;SDS011;63521;51.900;4.748;2023-04-24T04:51:58;0.63;;;0.35;;
74963;SDS011;63521;51.900;4.748;2023-04-24T04:54:24;1.15;;;0.45;;
74963;SDS011;63521;51.900;4.748;2023-04-24T04:56:50;0.80;;;0.30;;
74963;SDS011;63521;51.900;4.748;2023-04-24T04:59:15;0.40;;;0.40;;
74963;SDS011;63521;51.900;4.748;2023-04-24T05:01:41;0.88;;;0.30;;
74963;SDS011;63521;51.900;4.748;2023-04-24T05:04:07;0.30;;;0.30;;
74963;SDS011;63521;51.900;4.748;2023-04-24T05:06:32;0.30;;;0.30;;
74963;SDS011;63521;51.900;4.748;2023-04-24T05:08:58;0.55;;;0.50;;
74963;SDS011;63521;51.900;4.748;2023-04-24T05:11:24;0.30;;;0.30;;
74963;SDS011;63521;51.900;4.748;2023-04-24T05:13:49;0.50;;;0.50;;
74963;SDS011;63521;51.900;4.748;2023-04-24T05:16:14;0.50;;;0.50;;
74963;SDS011;63521;51.900;4.748;2023-04-24T05:18:41;0.30;;;0.30;;
74963;SDS011;63521;51.900;4.748;2023-04-24T05:21:06;0.85;;;0.40;;
74963;SDS011;63521;51.900;4.748;2023-04-24T05:23:32;0.63;;;0.40;;
74963;SDS011;63521;51.900;4.748;2023-04-24T05:25:57;0.50;;;0.50;;
74963;SDS011;63521;51.900;4.748;2023-04-24T05:28:23;0.80;;;0.50;;
74963;SDS011;63521;51.900;4.748;2023-04-24T05:30:52;0.63;;;0.45;;
74963;SDS011;63521;51.900;4.748;2023-04-24T05:33:18;0.52;;;0.52;;
74963;SDS011;63521;51.900;4.748;2023-04-24T05:35:43;0.65;;;0.55;;
74963;SDS011;63521;51.900;4.748;2023-04-24T05:38:11;0.85;;;0.70;;
74963;SDS011;63521;51.900;4.748;2023-04-24T05:40:38;0.88;;;0.70;;
74963;SDS011;63521;51.900;4.748;2023-04-24T05:47:44;2.25;;;1.00;;
74963;SDS011;63521;51.900;4.748;2023-04-24T05:53:20;2.10;;;1.20;;
74963;SDS011;63521;51.900;4.748;2023-04-24T05:55:46;2.10;;;1.20;;
74963;SDS011;63521;51.900;4.748;2023-04-24T05:58:12;2.17;;;1.20;;
74963;SDS011;63521;51.900;4.748;2023-04-24T06:00:39;4.88;;;1.40;;
74963;SDS011;63521;51.900;4.748;2023-04-24T06:03:08;2.70;;;1.48;;
74963;SDS011;63521;51.900;4.748;2023-04-24T06:05:33;3.17;;;1.45;;
74963;SDS011;63521;51.900;4.748;2023-04-24T06:08:00;4.03;;;1.70;;
74963;SDS011;63521;51.900;4.748;2023-04-24T06:10:25;4.25;;;1.77;;
74963;SDS011;63521;51.900;4.748;2023-04-24T06:12:50;4.65;;;1.88;;
74963;SDS011;63521;51.900;4.748;2023-04-24T06:15:16;2.58;;;1.67;;
74963;SDS011;63521;51.900;4.748;2023-04-24T06:17:41;4.55;;;1.88;;
74963;SDS011;63521;51.900;4.748;2023-04-24T06:20:07;4.72;;;1.80;;
74963;SDS011;63521;51.900;4.748;2023-04-24T06:22:34;3.53;;;1.80;;
74963;SDS011;63521;51.900;4.748;2023-04-24T06:25:00;3.80;;;1.63;;
74963;SDS011;63521;51.900;4.748;2023-04-24T06:27:28;3.33;;;1.80;;
74963;SDS011;63521;51.900;4.748;2023-04-24T06:29:54;2.92;;;1.60;;
74963;SDS011;63521;51.900;4.748;2023-04-24T06:32:21;2.88;;;1.63;;
74963;SDS011;63521;51.900;4.748;2023-04-24T06:34:48;3.00;;;1.63;;
74963;SDS011;63521;51.900;4.748;2023-04-24T06:37:16;3.65;;;1.70;;
74963;SDS011;63521;51.900;4.748;2023-04-24T06:39:42;2.97;;;1.67;;
74963;SDS011;63521;51.900;4.748;2023-04-24T06:42:07;4.65;;;2.08;;
74963;SDS011;63521;51.900;4.748;2023-04-24T06:44:35;3.20;;;1.73;;
74963;SDS011;63521;51.900;4.748;2023-04-24T06:47:06;3.50;;;1.95;;
74963;SDS011;63521;51.900;4.748;2023-04-24T06:49:33;3.20;;;2.10;;
74963;SDS011;63521;51.900;4.748;2023-04-24T06:51:58;6.60;;;2.20;;
74963;SDS011;63521;51.900;4.748;2023-04-24T06:54:24;4.60;;;2.03;;
74963;SDS011;63521;51.900;4.748;2023-04-24T06:56:49;4.07;;;1.85;;
74963;SDS011;63521;51.900;4.748;2023-04-24T06:59:17;3.58;;;1.67;;
74963;SDS011;63521;51.900;4.748;2023-04-24T07:01:42;4.93;;;1.80;;
74963;SDS011;63521;51.900;4.748;2023-04-24T07:04:08;5.18;;;2.28;;
74963;SDS011;63521;51.900;4.748;2023-04-24T07:06:34;3.00;;;1.80;;
74963;SDS011;63521;51.900;4.748;2023-04-24T07:09:00;2.70;;;1.58;;
74963;SDS011;63521;51.900;4.748;2023-04-24T07:11:26;4.97;;;1.85;;
74963;SDS011;63521;51.900;4.748;2023-04-24T07:13:54;3.42;;;1.73;;
74963;SDS011;63521;51.900;4.748;2023-04-24T07:16:20;3.55;;;1.95;;
74963;SDS011;63521;51.900;4.748;2023-04-24T07:18:47;3.97;;;1.80;;
74963;SDS011;63521;51.900;4.748;2023-04-24T07:21:13;3.90;;;1.33;;
74963;SDS011;63521;51.900;4.748;2023-04-24T07:23:38;4.60;;;1.85;;
74963;SDS011;63521;51.900;4.748;2023-04-24T07:26:06;5.80;;;1.80;;
74963;SDS011;63521;51.900;4.748;2023-04-24T07:28:31;4.57;;;1.90;;
74963;SDS011;63521;51.900;4.748;2023-04-24T07:30:57;4.38;;;1.80;;
74963;SDS011;63521;51.900;4.748;2023-04-24T07:33:23;1.95;;;1.48;;
74963;SDS011;63521;51.900;4.748;2023-04-24T07:35:49;3.35;;;1.70;;
74963;SDS011;63521;51.900;4.748;2023-04-24T07:38:15;4.32;;;1.60;;
74963;SDS011;63521;51.900;4.748;2023-04-24T07:40:40;2.45;;;1.50;;
74963;SDS011;63521;51.900;4.748;2023-04-24T07:43:08;6.45;;;2.00;;
74963;SDS011;63521;51.900;4.748;2023-04-24T07:45:35;4.28;;;1.67;;
74963;SDS011;63521;51.900;4.748;2023-04-24T07:48:02;2.50;;;1.50;;
74963;SDS011;63521;51.900;4.748;2023-04-24T07:50:28;2.03;;;1.45;;
74963;SDS011;63521;51.900;4.748;2023-04-24T07:52:54;3.80;;;1.70;;
74963;SDS011;63521;51.900;4.748;2023-04-24T07:55:19;2.85;;;1.65;;
74963;SDS011;63521;51.900;4.748;2023-04-24T07:57:45;5.68;;;1.70;;
74963;SDS011;63521;51.900;4.748;2023-04-24T08:00:10;3.45;;;1.63;;
74963;SDS011;63521;51.900;4.748;2023-04-24T08:02:36;4.63;;;1.50;;
74963;SDS011;63521;51.900;4.748;2023-04-24T08:05:02;3.03;;;1.63;;
74963;SDS011;63521;51.900;4.748;2023-04-24T08:07:28;3.13;;;1.90;;
74963;SDS011;63521;51.900;4.748;2023-04-24T08:09:54;2.70;;;1.65;;
74963;SDS011;63521;51.900;4.748;2023-04-24T08:12:20;4.53;;;2.03;;
74963;SDS011;63521;51.900;4.748;2023-04-24T08:14:45;5.13;;;1.60;;
74963;SDS011;63521;51.900;4.748;2023-04-24T08:17:10;3.95;;;1.83;;
74963;SDS011;63521;51.900;4.748;2023-04-24T08:19:36;3.55;;;1.33;;
74963;SDS011;63521;51.900;4.748;2023-04-24T08:22:03;3.72;;;1.40;;
74963;SDS011;63521;51.900;4.748;2023-04-24T08:24:29;6.53;;;1.50;;
74963;SDS011;63521;51.900;4.748;2023-04-24T08:26:54;3.03;;;1.40;;
74963;SDS011;63521;51.900;4.748;2023-04-24T08:29:24;3.13;;;1.33;;
74963;SDS011;63521;51.900;4.748;2023-04-24T08:31:50;2.15;;;1.30;;
74963;SDS011;63521;51.900;4.748;2023-04-24T08:34:15;2.60;;;1.25;;
74963;SDS011;63521;51.900;4.748;2023-04-24T08:36:41;5.45;;;1.50;;
74963;SDS011;63521;51.900;4.748;2023-04-24T08:39:07;4.97;;;1.35;;
74963;SDS011;63521;51.900;4.748;2023-04-24T08:41:33;3.55;;;1.52;;
74963;SDS011;63521;51.900;4.748;2023-04-24T08:43:59;3.90;;;1.73;;
74963;SDS011;63521;51.900;4.748;2023-04-24T08:46:26;3.90;;;1.42;;
74963;SDS011;63521;51.900;4.748;2023-04-24T08:48:52;2.10;;;1.45;;
74963;SDS011;63521;51.900;4.748;2023-04-24T08:51:17;4.13;;;1.65;;
74963;SDS011;63521;51.900;4.748;2023-04-24T08:53:43;5.88;;;1.30;;
74963;SDS011;63521;51.900;4.748;2023-04-24T08:56:12;2.97;;;1.20;;
74963;SDS011;63521;51.900;4.748;2023-04-24T08:58:39;2.65;;;1.15;;
74963;SDS011;63521;51.900;4.748;2023-04-24T09:01:04;3.17;;;1.35;;
74963;SDS011;63521;51.900;4.748;2023-04-24T09:03:31;3.05;;;1.38;;
74963;SDS011;63521;51.900;4.748;2023-04-24T09:05:58;2.65;;;1.40;;
74963;SDS011;63521;51.900;4.748;2023-04-24T09:08:24;3.05;;;1.30;;
74963;SDS011;63521;51.900;4.748;2023-04-24T09:10:51;4.13;;;1.27;;
74963;SDS011;63521;51.900;4.748;2023-04-24T09:13:18;3.30;;;1.20;;
74963;SDS011;63521;51.900;4.748;2023-04-24T09:15:44;2.83;;;0.93;;
74963;SDS011;63521;51.900;4.748;2023-04-24T09:18:10;3.10;;;1.40;;
74963;SDS011;63521;51.900;4.748;2023-04-24T09:20:35;7.20;;;1.45;;
74963;SDS011;63521;51.900;4.748;2023-04-24T09:23:25;1.90;;;1.20;;
74963;SDS011;63521;51.900;4.748;2023-04-24T09:25:54;2.95;;;1.13;;
74963;SDS011;63521;51.900;4.748;2023-04-24T09:28:29;2.70;;;1.10;;
74963;SDS011;63521;51.900;4.748;2023-04-24T09:31:05;2.40;;;1.00;;
74963;SDS011;63521;51.900;4.748;2023-04-24T09:33:39;2.22;;;1.02;;
74963;SDS011;63521;51.900;4.748;2023-04-24T09:36:04;2.80;;;1.33;;
74963;SDS011;63521;51.900;4.748;2023-04-24T09:38:34;2.85;;;1.10;;
74963;SDS011;63521;51.900;4.748;2023-04-24T09:41:12;2.88;;;1.10;;
74963;SDS011;63521;51.900;4.748;2023-04-24T09:43:38;2.78;;;1.45;;
74963;SDS011;63521;51.900;4.748;2023-04-24T09:46:05;1.70;;;0.80;;
74963;SDS011;63521;51.900;4.748;2023-04-24T09:48:32;1.45;;;0.77;;
74963;SDS011;63521;51.900;4.748;2023-04-24T09:51:01;1.52;;;0.93;;
74963;SDS011;63521;51.900;4.748;2023-04-24T09:53:28;0.85;;;0.85;;
74963;SDS011;63521;51.900;4.748;2023-04-24T09:55:54;2.10;;;0.98;;
74963;SDS011;63521;51.900;4.748;2023-04-24T09:58:25;1.33;;;0.90;;
74963;SDS011;63521;51.900;4.748;2023-04-24T10:00:54;1.98;;;0.93;;
74963;SDS011;63521;51.900;4.748;2023-04-24T10:03:20;1.83;;;0.90;;
74963;SDS011;63521;51.900;4.748;2023-04-24T10:05:46;1.45;;;0.95;;
74963;SDS011;63521;51.900;4.748;2023-04-24T10:08:12;1.92;;;0.90;;
74963;SDS011;63521;51.900;4.748;2023-04-24T10:10:39;1.00;;;0.90;;
74963;SDS011;63521;51.900;4.748;2023-04-24T10:13:06;2.97;;;0.95;;
74963;SDS011;63521;51.900;4.748;2023-04-24T10:15:32;2.10;;;0.90;;
74963;SDS011;63521;51.900;4.748;2023-04-24T10:17:58;3.50;;;0.85;;
74963;SDS011;63521;51.900;4.748;2023-04-24T10:20:25;1.33;;;0.70;;
74963;SDS011;63521;51.900;4.748;2023-04-24T10:22:52;2.38;;;0.80;;
74963;SDS011;63521;51.900;4.748;2023-04-24T10:25:20;1.35;;;0.60;;
74963;SDS011;63521;51.900;4.748;2023-04-24T10:27:50;2.08;;;0.70;;
74963;SDS011;63521;51.900;4.748;2023-04-24T10:30:20;0.93;;;0.93;;
74963;SDS011;63521;51.900;4.748;2023-04-24T10:32:46;0.98;;;0.88;;
74963;SDS011;63521;51.900;4.748;2023-04-24T10:35:12;1.75;;;0.60;;
74963;SDS011;63521;51.900;4.748;2023-04-24T10:37:44;0.95;;;0.60;;
74963;SDS011;63521;51.900;4.748;2023-04-24T10:40:16;2.40;;;0.90;;
74963;SDS011;63521;51.900;4.748;2023-04-24T10:45:17;0.75;;;0.60;;
74963;SDS011;63521;51.900;4.748;2023-04-24T10:47:50;2.33;;;0.75;;
74963;SDS011;63521;51.900;4.748;2023-04-24T10:50:16;2.67;;;0.70;;
74963;SDS011;63521;51.900;4.748;2023-04-24T10:52:45;2.42;;;0.93;;
74963;SDS011;63521;51.900;4.748;2023-04-24T10:55:16;2.35;;;0.80;;
74963;SDS011;63521;51.900;4.748;2023-04-24T10:58:01;3.67;;;0.93;;
74963;SDS011;63521;51.900;4.748;2023-04-24T11:00:28;2.58;;;0.50;;
74963;SDS011;63521;51.900;4.748;2023-04-24T11:02:53;1.13;;;0.60;;
74963;SDS011;63521;51.900;4.748;2023-04-24T11:05:20;1.05;;;0.50;;
74963;SDS011;63521;51.900;4.748;2023-04-24T11:11:18;1.17;;;0.50;;
74963;SDS011;63521;51.900;4.748;2023-04-24T11:13:25;2.13;;;0.70;;
74963;SDS011;63521;51.900;4.748;2023-04-24T11:18:41;2.47;;;0.52;;
74963;SDS011;63521;51.900;4.748;2023-04-24T11:21:15;1.15;;;0.70;;
74963;SDS011;63521;51.900;4.748;2023-04-24T11:23:42;2.38;;;0.70;;
74963;SDS011;63521;51.900;4.748;2023-04-24T11:26:12;1.55;;;0.50;;
74963;SDS011;63521;51.900;4.748;2023-04-24T11:28:46;0.52;;;0.50;;
74963;SDS011;63521;51.900;4.748;2023-04-24T11:31:34;2.90;;;0.70;;
74963;SDS011;63521;51.900;4.748;2023-04-24T11:34:07;2.80;;;0.70;;
74963;SDS011;63521;51.900;4.748;2023-04-24T11:36:36;1.58;;;0.55;;
74963;SDS011;63521;51.900;4.748;2023-04-24T11:39:02;1.20;;;0.60;;
74963;SDS011;63521;51.900;4.748;2023-04-24T11:41:27;4.15;;;0.90;;
74963;SDS011;63521;51.900;4.748;2023-04-24T11:43:57;1.35;;;0.50;;
74963;SDS011;63521;51.900;4.748;2023-04-24T11:46:27;2.60;;;0.70;;
74963;SDS011;63521;51.900;4.748;2023-04-24T11:48:53;2.40;;;0.63;;
74963;SDS011;63521;51.900;4.748;2023-04-24T11:51:19;1.05;;;0.50;;
74963;SDS011;63521;51.900;4.748;2023-04-24T11:53:53;0.50;;;0.35;;
74963;SDS011;63521;51.900;4.748;2023-04-24T11:56:21;1.45;;;0.60;;
74963;SDS011;63521;51.900;4.748;2023-04-24T11:58:52;1.35;;;0.50;;
74963;SDS011;63521;51.900;4.748;2023-04-24T12:01:18;2.35;;;0.40;;
74963;SDS011;63521;51.900;4.748;2023-04-24T12:03:47;0.75;;;0.60;;
74963;SDS011;63521;51.900;4.748;2023-04-24T12:06:14;1.25;;;0.47;;
74963;SDS011;63521;51.900;4.748;2023-04-24T12:08:39;1.55;;;0.60;;
74963;SDS011;63521;51.900;4.748;2023-04-24T12:11:05;3.78;;;0.57;;
74963;SDS011;63521;51.900;4.748;2023-04-24T12:13:34;1.75;;;0.60;;
74963;SDS011;63521;51.900;4.748;2023-04-24T12:16:03;1.45;;;0.50;;
74963;SDS011;63521;51.900;4.748;2023-04-24T12:18:30;1.30;;;0.47;;
74963;SDS011;63521;51.900;4.748;2023-04-24T12:23:43;1.48;;;0.68;;
74963;SDS011;63521;51.900;4.748;2023-04-24T12:26:10;2.15;;;0.55;;
74963;SDS011;63521;51.900;4.748;2023-04-24T12:28:37;1.02;;;0.40;;
74963;SDS011;63521;51.900;4.748;2023-04-24T12:31:02;0.63;;;0.63;;
74963;SDS011;63521;51.900;4.748;2023-04-24T12:33:34;2.15;;;0.95;;
74963;SDS011;63521;51.900;4.748;2023-04-24T12:36:00;1.08;;;0.70;;
74963;SDS011;63521;51.900;4.748;2023-04-24T12:38:33;2.40;;;0.60;;
74963;SDS011;63521;51.900;4.748;2023-04-24T12:41:09;0.98;;;0.60;;
74963;SDS011;63521;51.900;4.748;2023-04-24T12:43:37;3.88;;;0.85;;
74963;SDS011;63521;51.900;4.748;2023-04-24T12:46:04;2.25;;;0.70;;
74963;SDS011;63521;51.900;4.748;2023-04-24T12:48:30;2.03;;;0.68;;
74963;SDS011;63521;51.900;4.748;2023-04-24T12:50:59;2.30;;;0.85;;
74963;SDS011;63521;51.900;4.748;2023-04-24T12:53:28;1.42;;;0.77;;
74963;SDS011;63521;51.900;4.748;2023-04-24T12:55:56;1.45;;;0.70;;
74963;SDS011;63521;51.900;4.748;2023-04-24T12:58:22;2.08;;;0.90;;
74963;SDS011;63521;51.900;4.748;2023-04-24T13:00:47;1.42;;;0.63;;
74963;SDS011;63521;51.900;4.748;2023-04-24T13:03:14;1.27;;;0.75;;
74963;SDS011;63521;51.900;4.748;2023-04-24T13:05:39;1.10;;;0.77;;
74963;SDS011;63521;51.900;4.748;2023-04-24T13:08:05;1.05;;;0.70;;
74963;SDS011;63521;51.900;4.748;2023-04-24T13:10:31;1.55;;;0.70;;
74963;SDS011;63521;51.900;4.748;2023-04-24T13:12:56;3.08;;;0.95;;
74963;SDS011;63521;51.900;4.748;2023-04-24T13:15:22;1.63;;;1.13;;
74963;SDS011;63521;51.900;4.748;2023-04-24T13:17:47;2.25;;;0.98;;
74963;SDS011;63521;51.900;4.748;2023-04-24T13:20:14;4.35;;;0.90;;
74963;SDS011;63521;51.900;4.748;2023-04-24T13:22:40;1.27;;;0.90;;
74963;SDS011;63521;51.900;4.748;2023-04-24T13:25:06;2.13;;;1.00;;
74963;SDS011;63521;51.900;4.748;2023-04-24T13:27:32;4.55;;;1.23;;
74963;SDS011;63521;51.900;4.748;2023-04-24T13:29:57;3.88;;;0.90;;
74963;SDS011;63521;51.900;4.748;2023-04-24T13:32:23;4.93;;;1.10;;
74963;SDS011;63521;51.900;4.748;2023-04-24T13:34:50;2.90;;;1.30;;
74963;SDS011;63521;51.900;4.748;2023-04-24T13:37:16;3.00;;;0.90;;
74963;SDS011;63521;51.900;4.748;2023-04-24T13:39:41;2.05;;;0.90;;
74963;SDS011;63521;51.900;4.748;2023-04-24T13:42:07;2.90;;;0.98;;
74963;SDS011;63521;51.900;4.748;2023-04-24T13:44:32;2.70;;;0.90;;
74963;SDS011;63521;51.900;4.748;2023-04-24T13:46:58;2.17;;;0.73;;
74963;SDS011;63521;51.900;4.748;2023-04-24T13:49:28;4.07;;;1.08;;
74963;SDS011;63521;51.900;4.748;2023-04-24T13:51:55;2.92;;;1.00;;
74963;SDS011;63521;51.900;4.748;2023-04-24T13:54:21;2.80;;;0.90;;
74963;SDS011;63521;51.900;4.748;2023-04-24T13:56:48;3.40;;;1.27;;
74963;SDS011;63521;51.900;4.748;2023-04-24T13:59:14;2.72;;;0.90;;
74963;SDS011;63521;51.900;4.748;2023-04-24T14:01:39;2.58;;;1.10;;
74963;SDS011;63521;51.900;4.748;2023-04-24T14:04:04;3.25;;;1.08;;
74963;SDS011;63521;51.900;4.748;2023-04-24T14:06:31;2.17;;;0.90;;
74963;SDS011;63521;51.900;4.748;2023-04-24T14:08:57;3.75;;;1.00;;
74963;SDS011;63521;51.900;4.748;2023-04-24T14:11:22;2.70;;;1.20;;
74963;SDS011;63521;51.900;4.748;2023-04-24T14:13:48;5.20;;;1.10;;
74963;SDS011;63521;51.900;4.748;2023-04-24T14:16:13;3.83;;;1.25;;
74963;SDS011;63521;51.900;4.748;2023-04-24T14:18:40;4.97;;;1.33;;
74963;SDS011;63521;51.900;4.748;2023-04-24T14:21:05;2.75;;;1.20;;
74963;SDS011;63521;51.900;4.748;2023-04-24T14:23:31;3.22;;;1.20;;
74963;SDS011;63521;51.900;4.748;2023-04-24T14:25:57;2.72;;;1.10;;
74963;SDS011;63521;51.900;4.748;2023-04-24T14:28:23;2.03;;;1.17;;
74963;SDS011;63521;51.900;4.748;2023-04-24T14:30:49;2.97;;;1.30;;
74963;SDS011;63521;51.900;4.748;2023-04-24T14:33:15;3.60;;;1.20;;
74963;SDS011;63521;51.900;4.748;2023-04-24T14:35:41;2.05;;;1.33;;
74963;SDS011;63521;51.900;4.748;2023-04-24T14:38:12;3.05;;;1.23;;
74963;SDS011;63521;51.900;4.748;2023-04-24T14:40:38;3.60;;;1.67;;
74963;SDS011;63521;51.900;4.748;2023-04-24T14:43:03;3.17;;;1.40;;
74963;SDS011;63521;51.900;4.748;2023-04-24T14:45:28;3.47;;;1.50;;
74963;SDS011;63521;51.900;4.748;2023-04-24T14:47:55;5.80;;;1.40;;
74963;SDS011;63521;51.900;4.748;2023-04-24T14:50:20;3.47;;;1.60;;
74963;SDS011;63521;51.900;4.748;2023-04-24T14:52:46;4.82;;;1.55;;
74963;SDS011;63521;51.900;4.748;2023-04-24T14:55:12;2.95;;;2.08;;
74963;SDS011;63521;51.900;4.748;2023-04-24T14:57:37;2.83;;;1.50;;
74963;SDS011;63521;51.900;4.748;2023-04-24T15:00:03;4.82;;;1.75;;
74963;SDS011;63521;51.900;4.748;2023-04-24T15:02:32;3.63;;;1.45;;
74963;SDS011;63521;51.900;4.748;2023-04-24T15:04:58;4.78;;;1.60;;